Mc Clure, Pennsylvania
Current Conditions -  °F | °C
As of 10:35 PM on Monday 22 Dec 2014 (Local Time) from KUNV Reporting Station
Unknown Precip Unknown Precip  
Wind Chill: 32°   Ceiling: 800
Heat Index: 32°   Visibility: 1.5mi
Dew Point: 31°   Wind: 0mph
Humidity: 97%   Direction: NA
Pressure: 30.11"   Gusts: NA
Location:  40.7125°N, 77.3707°W
Report Text: KUNV 230335Z AUTO 00000KT 1 1/2SM UP OVC008 00/00 A3011 RMK AO2 T10011005
Loading
Personal Weather Stations






























Interactive Weather Map New forecast layout! Learn more

10-Day Weather Forecast

Advertisements
Track Severe Weather on mobile